sensor_id;sensor_type;location;lat;lon;timestamp;P1;durP1;ratioP1;P2;durP2;ratioP2
58468;SDS011;44257;44.804;10.220;2022-07-21T00:01:53;4.75;;;3.00;;
58468;SDS011;44257;44.804;10.220;2022-07-21T00:04:19;4.68;;;3.15;;
58468;SDS011;44257;44.804;10.220;2022-07-21T00:06:46;2.45;;;1.92;;
58468;SDS011;44257;44.804;10.220;2022-07-21T00:09:13;4.22;;;2.70;;
58468;SDS011;44257;44.804;10.220;2022-07-21T00:11:39;7.57;;;3.22;;
58468;SDS011;44257;44.804;10.220;2022-07-21T00:14:06;5.40;;;3.15;;
58468;SDS011;44257;44.804;10.220;2022-07-21T00:16:33;4.72;;;2.72;;
58468;SDS011;44257;44.804;10.220;2022-07-21T00:18:59;4.65;;;3.28;;
58468;SDS011;44257;44.804;10.220;2022-07-21T00:21:26;2.92;;;2.40;;
58468;SDS011;44257;44.804;10.220;2022-07-21T00:23:57;5.75;;;3.47;;
58468;SDS011;44257;44.804;10.220;2022-07-21T00:26:24;7.53;;;3.15;;
58468;SDS011;44257;44.804;10.220;2022-07-21T00:28:49;7.35;;;3.88;;
58468;SDS011;44257;44.804;10.220;2022-07-21T00:31:15;10.15;;;3.40;;
58468;SDS011;44257;44.804;10.220;2022-07-21T00:33:41;10.10;;;2.97;;
58468;SDS011;44257;44.804;10.220;2022-07-21T00:36:07;4.20;;;3.13;;
58468;SDS011;44257;44.804;10.220;2022-07-21T00:38:34;4.55;;;3.35;;
58468;SDS011;44257;44.804;10.220;2022-07-21T00:41:00;5.95;;;3.55;;
58468;SDS011;44257;44.804;10.220;2022-07-21T00:43:26;4.45;;;3.42;;
58468;SDS011;44257;44.804;10.220;2022-07-21T00:45:53;5.82;;;2.90;;
58468;SDS011;44257;44.804;10.220;2022-07-21T00:48:19;5.45;;;3.25;;
58468;SDS011;44257;44.804;10.220;2022-07-21T00:50:47;4.05;;;2.60;;
58468;SDS011;44257;44.804;10.220;2022-07-21T00:53:13;6.47;;;3.85;;
58468;SDS011;44257;44.804;10.220;2022-07-21T00:55:41;5.82;;;3.80;;
58468;SDS011;44257;44.804;10.220;2022-07-21T00:58:08;3.92;;;3.17;;
58468;SDS011;44257;44.804;10.220;2022-07-21T01:00:34;4.75;;;2.75;;
58468;SDS011;44257;44.804;10.220;2022-07-21T01:03:00;7.00;;;3.05;;
58468;SDS011;44257;44.804;10.220;2022-07-21T01:05:27;4.70;;;3.28;;
58468;SDS011;44257;44.804;10.220;2022-07-21T01:07:53;5.75;;;3.90;;
58468;SDS011;44257;44.804;10.220;2022-07-21T01:10:22;4.50;;;3.10;;
58468;SDS011;44257;44.804;10.220;2022-07-21T01:12:49;4.20;;;2.22;;
58468;SDS011;44257;44.804;10.220;2022-07-21T01:15:15;17.55;;;3.75;;
58468;SDS011;44257;44.804;10.220;2022-07-21T01:17:43;4.85;;;2.88;;
58468;SDS011;44257;44.804;10.220;2022-07-21T01:20:13;4.93;;;3.15;;
58468;SDS011;44257;44.804;10.220;2022-07-21T01:22:41;4.28;;;2.92;;
58468;SDS011;44257;44.804;10.220;2022-07-21T01:25:09;7.68;;;3.63;;
58468;SDS011;44257;44.804;10.220;2022-07-21T01:27:35;4.10;;;3.20;;
58468;SDS011;44257;44.804;10.220;2022-07-21T01:30:01;5.60;;;3.70;;
58468;SDS011;44257;44.804;10.220;2022-07-21T01:32:28;4.82;;;3.42;;
58468;SDS011;44257;44.804;10.220;2022-07-21T01:34:54;5.25;;;3.42;;
58468;SDS011;44257;44.804;10.220;2022-07-21T01:37:23;7.03;;;3.10;;
58468;SDS011;44257;44.804;10.220;2022-07-21T01:39:53;4.85;;;2.88;;
58468;SDS011;44257;44.804;10.220;2022-07-21T01:42:38;6.22;;;3.20;;
58468;SDS011;44257;44.804;10.220;2022-07-21T01:45:04;4.57;;;3.10;;
58468;SDS011;44257;44.804;10.220;2022-07-21T01:47:31;5.45;;;3.25;;
58468;SDS011;44257;44.804;10.220;2022-07-21T01:49:58;9.07;;;3.33;;
58468;SDS011;44257;44.804;10.220;2022-07-21T01:52:24;4.88;;;3.33;;
58468;SDS011;44257;44.804;10.220;2022-07-21T01:54:50;4.28;;;3.20;;
58468;SDS011;44257;44.804;10.220;2022-07-21T01:57:16;5.53;;;3.05;;
58468;SDS011;44257;44.804;10.220;2022-07-21T01:59:42;5.75;;;3.13;;
58468;SDS011;44257;44.804;10.220;2022-07-21T02:02:08;4.35;;;2.50;;
58468;SDS011;44257;44.804;10.220;2022-07-21T02:04:35;3.92;;;2.85;;
58468;SDS011;44257;44.804;10.220;2022-07-21T02:07:01;3.95;;;2.67;;
58468;SDS011;44257;44.804;10.220;2022-07-21T02:09:27;5.35;;;3.30;;
58468;SDS011;44257;44.804;10.220;2022-07-21T02:11:53;4.20;;;2.95;;
58468;SDS011;44257;44.804;10.220;2022-07-21T02:14:19;6.75;;;3.78;;
58468;SDS011;44257;44.804;10.220;2022-07-21T02:16:45;4.60;;;3.28;;
58468;SDS011;44257;44.804;10.220;2022-07-21T02:19:11;4.45;;;3.13;;
58468;SDS011;44257;44.804;10.220;2022-07-21T02:21:37;4.25;;;3.05;;
58468;SDS011;44257;44.804;10.220;2022-07-21T02:24:03;4.05;;;3.08;;
58468;SDS011;44257;44.804;10.220;2022-07-21T02:26:29;3.67;;;2.95;;
58468;SDS011;44257;44.804;10.220;2022-07-21T02:28:55;6.15;;;3.95;;
58468;SDS011;44257;44.804;10.220;2022-07-21T02:31:29;6.63;;;3.33;;
58468;SDS011;44257;44.804;10.220;2022-07-21T02:33:54;4.40;;;3.05;;
58468;SDS011;44257;44.804;10.220;2022-07-21T02:36:20;5.43;;;3.20;;
58468;SDS011;44257;44.804;10.220;2022-07-21T02:38:47;6.38;;;3.65;;
58468;SDS011;44257;44.804;10.220;2022-07-21T02:41:12;5.90;;;3.60;;
58468;SDS011;44257;44.804;10.220;2022-07-21T02:43:38;5.28;;;3.70;;
58468;SDS011;44257;44.804;10.220;2022-07-21T02:46:05;5.50;;;3.20;;
58468;SDS011;44257;44.804;10.220;2022-07-21T02:48:31;4.95;;;3.38;;
58468;SDS011;44257;44.804;10.220;2022-07-21T02:50:56;5.65;;;3.20;;
58468;SDS011;44257;44.804;10.220;2022-07-21T02:53:22;4.30;;;3.28;;
58468;SDS011;44257;44.804;10.220;2022-07-21T02:55:49;4.35;;;3.20;;
58468;SDS011;44257;44.804;10.220;2022-07-21T02:58:18;4.15;;;2.97;;
58468;SDS011;44257;44.804;10.220;2022-07-21T03:00:49;3.10;;;2.53;;
58468;SDS011;44257;44.804;10.220;2022-07-21T03:03:15;5.07;;;2.63;;
58468;SDS011;44257;44.804;10.220;2022-07-21T03:05:41;2.90;;;2.55;;
58468;SDS011;44257;44.804;10.220;2022-07-21T03:08:08;4.55;;;2.85;;
58468;SDS011;44257;44.804;10.220;2022-07-21T03:10:35;7.15;;;2.95;;
58468;SDS011;44257;44.804;10.220;2022-07-21T03:13:02;10.48;;;3.63;;
58468;SDS011;44257;44.804;10.220;2022-07-21T03:15:28;3.55;;;2.17;;
58468;SDS011;44257;44.804;10.220;2022-07-21T03:17:54;4.68;;;3.40;;
58468;SDS011;44257;44.804;10.220;2022-07-21T03:20:25;4.45;;;2.88;;
58468;SDS011;44257;44.804;10.220;2022-07-21T03:22:52;4.95;;;3.10;;
58468;SDS011;44257;44.804;10.220;2022-07-21T03:25:19;4.30;;;3.20;;
58468;SDS011;44257;44.804;10.220;2022-07-21T03:27:46;4.97;;;3.08;;
58468;SDS011;44257;44.804;10.220;2022-07-21T03:30:13;4.63;;;3.03;;
58468;SDS011;44257;44.804;10.220;2022-07-21T03:32:41;4.57;;;2.88;;
58468;SDS011;44257;44.804;10.220;2022-07-21T03:35:07;4.95;;;2.67;;
58468;SDS011;44257;44.804;10.220;2022-07-21T03:37:52;5.13;;;3.03;;
58468;SDS011;44257;44.804;10.220;2022-07-21T03:40:20;6.45;;;3.28;;
58468;SDS011;44257;44.804;10.220;2022-07-21T03:42:51;6.60;;;4.57;;
58468;SDS011;44257;44.804;10.220;2022-07-21T03:45:23;6.30;;;3.00;;
58468;SDS011;44257;44.804;10.220;2022-07-21T03:47:49;3.92;;;2.65;;
58468;SDS011;44257;44.804;10.220;2022-07-21T03:50:17;4.72;;;3.00;;
58468;SDS011;44257;44.804;10.220;2022-07-21T03:52:43;3.83;;;2.63;;
58468;SDS011;44257;44.804;10.220;2022-07-21T03:55:10;7.20;;;3.08;;
58468;SDS011;44257;44.804;10.220;2022-07-21T03:57:41;4.25;;;2.35;;
58468;SDS011;44257;44.804;10.220;2022-07-21T04:00:17;4.68;;;2.80;;
58468;SDS011;44257;44.804;10.220;2022-07-21T04:02:45;13.65;;;3.33;;
58468;SDS011;44257;44.804;10.220;2022-07-21T04:05:12;4.00;;;3.15;;
58468;SDS011;44257;44.804;10.220;2022-07-21T04:07:39;3.58;;;2.80;;
58468;SDS011;44257;44.804;10.220;2022-07-21T04:10:07;4.50;;;3.00;;
58468;SDS011;44257;44.804;10.220;2022-07-21T04:12:34;5.38;;;3.38;;
58468;SDS011;44257;44.804;10.220;2022-07-21T04:15:00;7.00;;;3.72;;
58468;SDS011;44257;44.804;10.220;2022-07-21T04:17:26;5.88;;;3.42;;
58468;SDS011;44257;44.804;10.220;2022-07-21T04:19:52;6.18;;;4.00;;
58468;SDS011;44257;44.804;10.220;2022-07-21T04:22:17;5.15;;;3.47;;
58468;SDS011;44257;44.804;10.220;2022-07-21T04:24:44;9.93;;;2.83;;
58468;SDS011;44257;44.804;10.220;2022-07-21T04:27:10;4.30;;;2.78;;
58468;SDS011;44257;44.804;10.220;2022-07-21T04:29:36;4.30;;;2.97;;
58468;SDS011;44257;44.804;10.220;2022-07-21T04:32:01;5.13;;;2.92;;
58468;SDS011;44257;44.804;10.220;2022-07-21T04:34:28;5.88;;;3.30;;
58468;SDS011;44257;44.804;10.220;2022-07-21T04:36:54;4.38;;;3.08;;
58468;SDS011;44257;44.804;10.220;2022-07-21T04:39:20;4.70;;;2.67;;
58468;SDS011;44257;44.804;10.220;2022-07-21T04:41:46;5.22;;;3.78;;
58468;SDS011;44257;44.804;10.220;2022-07-21T04:44:12;4.38;;;2.97;;
58468;SDS011;44257;44.804;10.220;2022-07-21T04:46:38;3.92;;;2.25;;
58468;SDS011;44257;44.804;10.220;2022-07-21T04:49:04;4.40;;;2.75;;
58468;SDS011;44257;44.804;10.220;2022-07-21T04:51:29;4.00;;;2.75;;
58468;SDS011;44257;44.804;10.220;2022-07-21T04:53:55;6.45;;;3.47;;
58468;SDS011;44257;44.804;10.220;2022-07-21T04:56:21;4.05;;;2.75;;
58468;SDS011;44257;44.804;10.220;2022-07-21T04:58:48;3.92;;;2.45;;
58468;SDS011;44257;44.804;10.220;2022-07-21T05:01:15;7.63;;;4.68;;
58468;SDS011;44257;44.804;10.220;2022-07-21T05:03:45;4.82;;;3.58;;
58468;SDS011;44257;44.804;10.220;2022-07-21T05:06:11;3.85;;;3.40;;
58468;SDS011;44257;44.804;10.220;2022-07-21T05:08:37;5.93;;;3.28;;
58468;SDS011;44257;44.804;10.220;2022-07-21T05:11:03;5.50;;;2.97;;
58468;SDS011;44257;44.804;10.220;2022-07-21T05:13:30;4.13;;;2.55;;
58468;SDS011;44257;44.804;10.220;2022-07-21T05:15:55;4.72;;;3.90;;
58468;SDS011;44257;44.804;10.220;2022-07-21T05:18:21;4.75;;;2.55;;
58468;SDS011;44257;44.804;10.220;2022-07-21T05:20:47;22.33;;;4.03;;
58468;SDS011;44257;44.804;10.220;2022-07-21T05:23:13;6.13;;;3.58;;
58468;SDS011;44257;44.804;10.220;2022-07-21T05:25:39;4.47;;;3.67;;
58468;SDS011;44257;44.804;10.220;2022-07-21T05:28:05;3.20;;;2.35;;
58468;SDS011;44257;44.804;10.220;2022-07-21T05:30:31;5.18;;;3.67;;
58468;SDS011;44257;44.804;10.220;2022-07-21T05:32:58;15.88;;;3.08;;
58468;SDS011;44257;44.804;10.220;2022-07-21T05:35:23;3.55;;;2.42;;
58468;SDS011;44257;44.804;10.220;2022-07-21T05:37:49;5.32;;;2.85;;
58468;SDS011;44257;44.804;10.220;2022-07-21T05:40:15;5.80;;;3.65;;
58468;SDS011;44257;44.804;10.220;2022-07-21T05:42:42;4.40;;;2.65;;
58468;SDS011;44257;44.804;10.220;2022-07-21T05:45:09;3.80;;;2.72;;
58468;SDS011;44257;44.804;10.220;2022-07-21T05:47:37;3.72;;;2.50;;
58468;SDS011;44257;44.804;10.220;2022-07-21T05:50:04;4.47;;;2.58;;
58468;SDS011;44257;44.804;10.220;2022-07-21T05:52:31;3.65;;;2.53;;
58468;SDS011;44257;44.804;10.220;2022-07-21T05:54:56;4.82;;;3.17;;
58468;SDS011;44257;44.804;10.220;2022-07-21T05:57:22;4.13;;;2.40;;
58468;SDS011;44257;44.804;10.220;2022-07-21T05:59:49;3.47;;;2.30;;
58468;SDS011;44257;44.804;10.220;2022-07-21T06:02:15;2.80;;;2.17;;
58468;SDS011;44257;44.804;10.220;2022-07-21T06:04:41;9.18;;;2.72;;
58468;SDS011;44257;44.804;10.220;2022-07-21T06:07:06;3.15;;;1.90;;
58468;SDS011;44257;44.804;10.220;2022-07-21T06:09:32;6.95;;;2.75;;
58468;SDS011;44257;44.804;10.220;2022-07-21T06:11:59;4.03;;;3.10;;
58468;SDS011;44257;44.804;10.220;2022-07-21T06:14:25;3.78;;;2.45;;
58468;SDS011;44257;44.804;10.220;2022-07-21T06:16:51;3.97;;;2.60;;
58468;SDS011;44257;44.804;10.220;2022-07-21T06:19:17;6.28;;;2.60;;
58468;SDS011;44257;44.804;10.220;2022-07-21T06:21:44;3.05;;;2.25;;
58468;SDS011;44257;44.804;10.220;2022-07-21T06:24:10;2.70;;;2.40;;
58468;SDS011;44257;44.804;10.220;2022-07-21T06:26:36;3.53;;;2.40;;
58468;SDS011;44257;44.804;10.220;2022-07-21T06:29:04;4.05;;;2.45;;
58468;SDS011;44257;44.804;10.220;2022-07-21T06:31:34;12.32;;;2.85;;
58468;SDS011;44257;44.804;10.220;2022-07-21T06:33:59;3.97;;;2.38;;
58468;SDS011;44257;44.804;10.220;2022-07-21T06:36:25;5.13;;;2.90;;
58468;SDS011;44257;44.804;10.220;2022-07-21T06:38:53;3.25;;;2.10;;
58468;SDS011;44257;44.804;10.220;2022-07-21T06:41:18;4.53;;;2.75;;
58468;SDS011;44257;44.804;10.220;2022-07-21T06:43:44;3.50;;;2.15;;
58468;SDS011;44257;44.804;10.220;2022-07-21T06:46:10;4.70;;;3.03;;
58468;SDS011;44257;44.804;10.220;2022-07-21T06:48:37;2.90;;;2.03;;
58468;SDS011;44257;44.804;10.220;2022-07-21T06:51:02;3.13;;;2.42;;
58468;SDS011;44257;44.804;10.220;2022-07-21T06:53:29;3.78;;;2.53;;
58468;SDS011;44257;44.804;10.220;2022-07-21T06:55:54;3.97;;;2.63;;
58468;SDS011;44257;44.804;10.220;2022-07-21T06:58:22;5.75;;;2.35;;
58468;SDS011;44257;44.804;10.220;2022-07-21T07:00:50;2.78;;;1.90;;
58468;SDS011;44257;44.804;10.220;2022-07-21T07:03:16;3.53;;;2.72;;
58468;SDS011;44257;44.804;10.220;2022-07-21T07:05:44;4.53;;;2.97;;
58468;SDS011;44257;44.804;10.220;2022-07-21T07:08:12;3.95;;;2.70;;
58468;SDS011;44257;44.804;10.220;2022-07-21T07:10:39;4.10;;;2.30;;
58468;SDS011;44257;44.804;10.220;2022-07-21T07:13:06;2.75;;;2.17;;
58468;SDS011;44257;44.804;10.220;2022-07-21T07:15:33;4.18;;;2.95;;
58468;SDS011;44257;44.804;10.220;2022-07-21T07:17:59;2.90;;;2.42;;
58468;SDS011;44257;44.804;10.220;2022-07-21T07:20:25;5.55;;;2.05;;
58468;SDS011;44257;44.804;10.220;2022-07-21T07:22:51;3.67;;;2.42;;
58468;SDS011;44257;44.804;10.220;2022-07-21T07:25:17;5.97;;;3.08;;
58468;SDS011;44257;44.804;10.220;2022-07-21T07:27:46;7.70;;;2.53;;
58468;SDS011;44257;44.804;10.220;2022-07-21T07:30:15;3.30;;;2.42;;
58468;SDS011;44257;44.804;10.220;2022-07-21T07:32:42;4.43;;;2.35;;
58468;SDS011;44257;44.804;10.220;2022-07-21T07:35:09;4.43;;;2.60;;
58468;SDS011;44257;44.804;10.220;2022-07-21T07:37:38;3.47;;;2.03;;
58468;SDS011;44257;44.804;10.220;2022-07-21T07:40:07;3.92;;;2.70;;
58468;SDS011;44257;44.804;10.220;2022-07-21T07:42:35;4.50;;;2.40;;
58468;SDS011;44257;44.804;10.220;2022-07-21T07:45:03;3.70;;;2.67;;
58468;SDS011;44257;44.804;10.220;2022-07-21T07:47:31;2.65;;;2.22;;
58468;SDS011;44257;44.804;10.220;2022-07-21T07:49:57;3.78;;;2.50;;
58468;SDS011;44257;44.804;10.220;2022-07-21T07:52:23;4.55;;;3.28;;
58468;SDS011;44257;44.804;10.220;2022-07-21T07:54:49;3.67;;;2.58;;
58468;SDS011;44257;44.804;10.220;2022-07-21T07:57:15;3.20;;;2.60;;
58468;SDS011;44257;44.804;10.220;2022-07-21T07:59:40;4.97;;;2.85;;
58468;SDS011;44257;44.804;10.220;2022-07-21T08:02:06;4.80;;;3.40;;
58468;SDS011;44257;44.804;10.220;2022-07-21T08:04:32;9.63;;;2.58;;
58468;SDS011;44257;44.804;10.220;2022-07-21T08:06:58;3.45;;;2.38;;
58468;SDS011;44257;44.804;10.220;2022-07-21T08:09:24;6.28;;;3.38;;
58468;SDS011;44257;44.804;10.220;2022-07-21T08:11:50;3.42;;;2.83;;
58468;SDS011;44257;44.804;10.220;2022-07-21T08:14:17;4.57;;;3.15;;
58468;SDS011;44257;44.804;10.220;2022-07-21T08:16:43;4.40;;;2.45;;
58468;SDS011;44257;44.804;10.220;2022-07-21T08:19:09;4.75;;;3.03;;
58468;SDS011;44257;44.804;10.220;2022-07-21T08:21:35;7.55;;;4.10;;
58468;SDS011;44257;44.804;10.220;2022-07-21T08:24:01;4.68;;;2.88;;
58468;SDS011;44257;44.804;10.220;2022-07-21T08:26:27;5.70;;;2.75;;
58468;SDS011;44257;44.804;10.220;2022-07-21T08:28:53;3.28;;;2.40;;
58468;SDS011;44257;44.804;10.220;2022-07-21T08:31:20;5.07;;;2.58;;
58468;SDS011;44257;44.804;10.220;2022-07-21T08:33:46;4.22;;;3.10;;
58468;SDS011;44257;44.804;10.220;2022-07-21T08:36:12;3.90;;;2.50;;
58468;SDS011;44257;44.804;10.220;2022-07-21T08:38:37;3.85;;;3.03;;
58468;SDS011;44257;44.804;10.220;2022-07-21T08:41:03;2.75;;;2.10;;
58468;SDS011;44257;44.804;10.220;2022-07-21T08:43:30;5.13;;;3.25;;
58468;SDS011;44257;44.804;10.220;2022-07-21T08:45:58;4.75;;;2.95;;
58468;SDS011;44257;44.804;10.220;2022-07-21T08:48:25;6.55;;;3.00;;
58468;SDS011;44257;44.804;10.220;2022-07-21T08:50:51;5.07;;;3.08;;
58468;SDS011;44257;44.804;10.220;2022-07-21T08:53:17;5.28;;;3.00;;
58468;SDS011;44257;44.804;10.220;2022-07-21T08:55:44;4.00;;;2.65;;
58468;SDS011;44257;44.804;10.220;2022-07-21T08:58:10;5.43;;;2.97;;
58468;SDS011;44257;44.804;10.220;2022-07-21T09:00:38;4.68;;;2.67;;
58468;SDS011;44257;44.804;10.220;2022-07-21T09:03:11;5.05;;;3.40;;
58468;SDS011;44257;44.804;10.220;2022-07-21T09:05:40;6.65;;;4.00;;
58468;SDS011;44257;44.804;10.220;2022-07-21T09:08:31;3.28;;;2.17;;
58468;SDS011;44257;44.804;10.220;2022-07-21T09:11:12;4.85;;;3.08;;
58468;SDS011;44257;44.804;10.220;2022-07-21T09:14:06;3.67;;;2.22;;
58468;SDS011;44257;44.804;10.220;2022-07-21T09:16:35;2.67;;;2.35;;
58468;SDS011;44257;44.804;10.220;2022-07-21T09:19:02;6.57;;;3.33;;
58468;SDS011;44257;44.804;10.220;2022-07-21T09:21:28;5.10;;;2.78;;
58468;SDS011;44257;44.804;10.220;2022-07-21T09:29:34;6.05;;;2.95;;
58468;SDS011;44257;44.804;10.220;2022-07-21T09:37:29;6.65;;;2.33;;
58468;SDS011;44257;44.804;10.220;2022-07-21T09:39:57;8.27;;;3.13;;
58468;SDS011;44257;44.804;10.220;2022-07-21T09:42:26;4.18;;;2.13;;
58468;SDS011;44257;44.804;10.220;2022-07-21T09:47:25;4.45;;;1.95;;
58468;SDS011;44257;44.804;10.220;2022-07-21T09:49:52;3.42;;;2.03;;
58468;SDS011;44257;44.804;10.220;2022-07-21T09:54:56;4.60;;;2.22;;
58468;SDS011;44257;44.804;10.220;2022-07-21T09:57:25;3.83;;;1.95;;
58468;SDS011;44257;44.804;10.220;2022-07-21T09:59:52;3.30;;;1.88;;
58468;SDS011;44257;44.804;10.220;2022-07-21T10:02:31;3.50;;;2.40;;
58468;SDS011;44257;44.804;10.220;2022-07-21T10:04:59;6.60;;;2.38;;
58468;SDS011;44257;44.804;10.220;2022-07-21T10:07:26;4.10;;;1.88;;
58468;SDS011;44257;44.804;10.220;2022-07-21T10:09:54;8.63;;;3.15;;
58468;SDS011;44257;44.804;10.220;2022-07-21T10:12:20;5.85;;;2.17;;
58468;SDS011;44257;44.804;10.220;2022-07-21T10:14:47;4.38;;;2.45;;
58468;SDS011;44257;44.804;10.220;2022-07-21T10:17:14;3.92;;;2.42;;
58468;SDS011;44257;44.804;10.220;2022-07-21T10:25:36;3.22;;;1.95;;
58468;SDS011;44257;44.804;10.220;2022-07-21T10:31:14;2.53;;;2.05;;
58468;SDS011;44257;44.804;10.220;2022-07-21T10:41:50;2.78;;;1.95;;
58468;SDS011;44257;44.804;10.220;2022-07-21T10:55:22;2.33;;;1.60;;
58468;SDS011;44257;44.804;10.220;2022-07-21T10:58:08;11.52;;;1.77;;
58468;SDS011;44257;44.804;10.220;2022-07-21T11:00:43;2.72;;;1.90;;
58468;SDS011;44257;44.804;10.220;2022-07-21T11:03:18;3.95;;;1.70;;
58468;SDS011;44257;44.804;10.220;2022-07-21T11:08:36;3.78;;;2.45;;
58468;SDS011;44257;44.804;10.220;2022-07-21T11:22:03;3.05;;;2.05;;
58468;SDS011;44257;44.804;10.220;2022-07-21T11:24:51;1.55;;;0.90;;
58468;SDS011;44257;44.804;10.220;2022-07-21T11:29:50;5.47;;;1.27;;
58468;SDS011;44257;44.804;10.220;2022-07-21T11:32:19;3.30;;;1.75;;
58468;SDS011;44257;44.804;10.220;2022-07-21T11:34:47;1.75;;;1.13;;
58468;SDS011;44257;44.804;10.220;2022-07-21T11:37:17;2.78;;;1.70;;
58468;SDS011;44257;44.804;10.220;2022-07-21T11:39:44;2.70;;;1.63;;
58468;SDS011;44257;44.804;10.220;2022-07-21T11:42:12;2.33;;;1.63;;
58468;SDS011;44257;44.804;10.220;2022-07-21T11:44:41;2.08;;;1.50;;
58468;SDS011;44257;44.804;10.220;2022-07-21T11:47:11;2.05;;;1.35;;
58468;SDS011;44257;44.804;10.220;2022-07-21T11:49:39;3.63;;;1.65;;
58468;SDS011;44257;44.804;10.220;2022-07-21T11:52:10;15.38;;;2.17;;
58468;SDS011;44257;44.804;10.220;2022-07-21T11:54:42;2.75;;;1.63;;
58468;SDS011;44257;44.804;10.220;2022-07-21T11:59:37;2.72;;;1.73;;
58468;SDS011;44257;44.804;10.220;2022-07-21T12:04:37;2.00;;;1.77;;
58468;SDS011;44257;44.804;10.220;2022-07-21T12:07:14;2.58;;;1.58;;
58468;SDS011;44257;44.804;10.220;2022-07-21T12:09:43;10.40;;;2.03;;
58468;SDS011;44257;44.804;10.220;2022-07-21T12:12:11;1.77;;;1.25;;
58468;SDS011;44257;44.804;10.220;2022-07-21T12:14:45;4.93;;;2.35;;
58468;SDS011;44257;44.804;10.220;2022-07-21T12:17:19;3.50;;;2.55;;
58468;SDS011;44257;44.804;10.220;2022-07-21T12:25:06;1.73;;;1.17;;
58468;SDS011;44257;44.804;10.220;2022-07-21T12:27:36;2.85;;;1.42;;
58468;SDS011;44257;44.804;10.220;2022-07-21T12:32:44;1.30;;;1.00;;
58468;SDS011;44257;44.804;10.220;2022-07-21T12:35:21;2.92;;;1.73;;
58468;SDS011;44257;44.804;10.220;2022-07-21T12:40:30;1.73;;;1.30;;
58468;SDS011;44257;44.804;10.220;2022-07-21T12:48:16;2.75;;;1.65;;
58468;SDS011;44257;44.804;10.220;2022-07-21T12:51:01;3.60;;;1.40;;
58468;SDS011;44257;44.804;10.220;2022-07-21T12:53:33;2.15;;;1.40;;
58468;SDS011;44257;44.804;10.220;2022-07-21T12:56:00;1.63;;;1.15;;
58468;SDS011;44257;44.804;10.220;2022-07-21T12:58:27;2.40;;;1.42;;
58468;SDS011;44257;44.804;10.220;2022-07-21T13:00:54;2.17;;;1.48;;
58468;SDS011;44257;44.804;10.220;2022-07-21T13:03:20;2.30;;;1.55;;
58468;SDS011;44257;44.804;10.220;2022-07-21T13:05:46;2.78;;;1.17;;
58468;SDS011;44257;44.804;10.220;2022-07-21T13:08:12;2.65;;;1.10;;
58468;SDS011;44257;44.804;10.220;2022-07-21T13:10:39;2.58;;;1.65;;
58468;SDS011;44257;44.804;10.220;2022-07-21T13:13:05;2.17;;;1.40;;
58468;SDS011;44257;44.804;10.220;2022-07-21T13:15:31;18.83;;;3.20;;
58468;SDS011;44257;44.804;10.220;2022-07-21T13:17:58;1.50;;;1.25;;
58468;SDS011;44257;44.804;10.220;2022-07-21T13:20:24;2.05;;;1.48;;
58468;SDS011;44257;44.804;10.220;2022-07-21T13:22:51;3.45;;;1.35;;
58468;SDS011;44257;44.804;10.220;2022-07-21T13:25:17;2.47;;;1.40;;
58468;SDS011;44257;44.804;10.220;2022-07-21T13:27:43;6.20;;;1.52;;
58468;SDS011;44257;44.804;10.220;2022-07-21T13:30:09;2.40;;;1.48;;
58468;SDS011;44257;44.804;10.220;2022-07-21T13:32:37;1.42;;;0.93;;
58468;SDS011;44257;44.804;10.220;2022-07-21T13:35:04;1.98;;;1.50;;
58468;SDS011;44257;44.804;10.220;2022-07-21T13:37:31;3.70;;;1.65;;
58468;SDS011;44257;44.804;10.220;2022-07-21T13:39:57;2.13;;;1.10;;
58468;SDS011;44257;44.804;10.220;2022-07-21T13:42:24;2.17;;;1.20;;
58468;SDS011;44257;44.804;10.220;2022-07-21T13:44:50;7.65;;;1.65;;
58468;SDS011;44257;44.804;10.220;2022-07-21T13:47:16;2.10;;;1.52;;
58468;SDS011;44257;44.804;10.220;2022-07-21T13:49:43;3.20;;;1.38;;
58468;SDS011;44257;44.804;10.220;2022-07-21T13:52:09;3.72;;;1.88;;
58468;SDS011;44257;44.804;10.220;2022-07-21T13:54:35;2.03;;;1.23;;
58468;SDS011;44257;44.804;10.220;2022-07-21T13:57:03;1.88;;;1.10;;
58468;SDS011;44257;44.804;10.220;2022-07-21T13:59:29;1.95;;;1.70;;
58468;SDS011;44257;44.804;10.220;2022-07-21T14:01:55;5.63;;;1.30;;
58468;SDS011;44257;44.804;10.220;2022-07-21T14:04:21;2.10;;;1.50;;
58468;SDS011;44257;44.804;10.220;2022-07-21T14:06:49;3.47;;;1.73;;
58468;SDS011;44257;44.804;10.220;2022-07-21T14:09:15;3.13;;;1.63;;
58468;SDS011;44257;44.804;10.220;2022-07-21T14:11:42;1.98;;;1.25;;
58468;SDS011;44257;44.804;10.220;2022-07-21T14:14:08;1.63;;;1.10;;
58468;SDS011;44257;44.804;10.220;2022-07-21T14:16:36;6.35;;;1.80;;
58468;SDS011;44257;44.804;10.220;2022-07-21T14:19:02;1.85;;;1.10;;
58468;SDS011;44257;44.804;10.220;2022-07-21T14:21:29;3.10;;;1.60;;
58468;SDS011;44257;44.804;10.220;2022-07-21T14:23:55;3.33;;;1.65;;
58468;SDS011;44257;44.804;10.220;2022-07-21T14:26:40;2.08;;;1.30;;
58468;SDS011;44257;44.804;10.220;2022-07-21T14:29:06;2.50;;;1.70;;
58468;SDS011;44257;44.804;10.220;2022-07-21T14:31:32;1.90;;;1.15;;
58468;SDS011;44257;44.804;10.220;2022-07-21T14:34:01;2.05;;;1.67;;
58468;SDS011;44257;44.804;10.220;2022-07-21T14:36:27;1.95;;;1.20;;
58468;SDS011;44257;44.804;10.220;2022-07-21T14:38:53;2.03;;;1.27;;
58468;SDS011;44257;44.804;10.220;2022-07-21T14:41:19;2.28;;;1.48;;
58468;SDS011;44257;44.804;10.220;2022-07-21T14:43:45;2.88;;;1.83;;
58468;SDS011;44257;44.804;10.220;2022-07-21T14:46:14;2.58;;;1.73;;
58468;SDS011;44257;44.804;10.220;2022-07-21T14:48:41;2.58;;;1.85;;
58468;SDS011;44257;44.804;10.220;2022-07-21T14:51:07;5.30;;;2.28;;
58468;SDS011;44257;44.804;10.220;2022-07-21T14:53:33;2.00;;;1.23;;
58468;SDS011;44257;44.804;10.220;2022-07-21T14:55:59;2.17;;;1.55;;
58468;SDS011;44257;44.804;10.220;2022-07-21T14:58:25;1.52;;;1.20;;
58468;SDS011;44257;44.804;10.220;2022-07-21T15:00:51;2.42;;;1.52;;
58468;SDS011;44257;44.804;10.220;2022-07-21T15:03:17;3.45;;;1.95;;
58468;SDS011;44257;44.804;10.220;2022-07-21T15:05:44;2.28;;;1.48;;
58468;SDS011;44257;44.804;10.220;2022-07-21T15:08:10;3.72;;;1.70;;
58468;SDS011;44257;44.804;10.220;2022-07-21T15:10:37;3.13;;;1.50;;
58468;SDS011;44257;44.804;10.220;2022-07-21T15:13:04;3.03;;;1.98;;
58468;SDS011;44257;44.804;10.220;2022-07-21T15:15:30;2.78;;;1.77;;
58468;SDS011;44257;44.804;10.220;2022-07-21T15:17:56;2.55;;;1.63;;
58468;SDS011;44257;44.804;10.220;2022-07-21T15:20:22;1.73;;;1.08;;
58468;SDS011;44257;44.804;10.220;2022-07-21T15:22:48;2.75;;;1.98;;
58468;SDS011;44257;44.804;10.220;2022-07-21T15:25:14;3.28;;;1.35;;
58468;SDS011;44257;44.804;10.220;2022-07-21T15:27:41;2.10;;;1.42;;
58468;SDS011;44257;44.804;10.220;2022-07-21T15:30:12;2.78;;;1.50;;
58468;SDS011;44257;44.804;10.220;2022-07-21T15:32:40;3.22;;;2.45;;
58468;SDS011;44257;44.804;10.220;2022-07-21T15:35:07;2.58;;;1.77;;
58468;SDS011;44257;44.804;10.220;2022-07-21T15:37:34;2.05;;;1.38;;
58468;SDS011;44257;44.804;10.220;2022-07-21T15:40:01;2.78;;;1.73;;
58468;SDS011;44257;44.804;10.220;2022-07-21T15:42:28;1.70;;;1.27;;
58468;SDS011;44257;44.804;10.220;2022-07-21T15:44:56;2.83;;;1.70;;
58468;SDS011;44257;44.804;10.220;2022-07-21T15:47:24;1.90;;;1.40;;
58468;SDS011;44257;44.804;10.220;2022-07-21T15:49:50;2.35;;;1.65;;
58468;SDS011;44257;44.804;10.220;2022-07-21T15:52:18;2.78;;;1.83;;
58468;SDS011;44257;44.804;10.220;2022-07-21T15:54:46;2.70;;;1.65;;
58468;SDS011;44257;44.804;10.220;2022-07-21T15:57:13;2.03;;;1.40;;